Wetterstation Vordersexau
Wetterdaten: Woche 29.02.16 - 06.03.16 (KW9)
Datum Zeit Temp. A. Feuchte A. Luftdruck Regen Wind Richtung Taupunkt Windchill Windben
29.02.2016 00:00 0,0 C 75 % 1008,5 hPa 0,0 l/m 0,0 km/h S-SO -3,9 C 0,0 C 0,0 km/h
29.02.2016 01:00 0,0 C 75 % 1008,4 hPa 0,0 l/m 0,0 km/h S-SO -3,9 C 0,0 C 0,0 km/h
29.02.2016 02:00 0,0 C 75 % 1008,4 hPa 0,0 l/m 0,0 km/h S-SO -3,9 C 0,0 C 0,0 km/h
29.02.2016 03:00 0,0 C 75 % 1007,8 hPa 0,0 l/m 0,0 km/h S-SO -3,9 C 0,0 C 0,0 km/h
29.02.2016 04:00 0,0 C 75 % 1007,7 hPa 0,0 l/m 0,0 km/h NO -3,9 C 0,0 C 0,0 km/h
29.02.2016 05:00 3,3 C 75 % 1008,5 hPa 0,0 l/m 0,0 km/h NO -0,7 C 3,3 C 0,0 km/h
29.02.2016 06:00 2,6 C 81 % 1008,3 hPa 0,0 l/m 16,8 km/h N-NO -0,3 C -4,8 C 9,4 km/h
29.02.2016 07:00 2,6 C 81 % 1008,8 hPa 0,0 l/m 1,3 km/h NO -0,3 C 2,6 C 0,7 km/h
29.02.2016 08:00 2,7 C 81 % 1009,4 hPa 0,0 l/m 0,0 km/h NO -0,2 C 2,7 C 0,0 km/h
29.02.2016 09:00 2,9 C 81 % 1010,0 hPa 0,0 l/m 10,4 km/h N-NW -0,0 C -0,5 C 5,8 km/h
29.02.2016 10:00 3,1 C 81 % 1010,4 hPa 0,0 l/m 0,0 km/h NO 0,2 C 3,1 C 0,0 km/h
29.02.2016 11:00 3,6 C 80 % 1010,9 hPa 0,0 l/m 1,9 km/h N-NO 0,5 C 3,6 C 1,1 km/h
29.02.2016 12:00 3,6 C 79 % 1011,3 hPa 0,0 l/m 0,0 km/h NO 0,3 C 3,6 C 0,0 km/h
29.02.2016 13:00 3,6 C 79 % 1011,3 hPa 0,0 l/m 0,0 km/h NO 0,3 C 3,6 C 0,0 km/h
29.02.2016 14:00 3,3 C 80 % 1011,6 hPa 0,0 l/m 0,0 km/h N-NO 0,2 C 3,3 C 0,0 km/h
29.02.2016 15:00 2,9 C 82 % 1012,3 hPa 0,0 l/m 0,0 km/h O-NO 0,1 C 2,9 C 0,0 km/h
29.02.2016 16:00 3,1 C 82 % 1013,1 hPa 0,0 l/m 0,0 km/h NO 0,3 C 3,1 C 0,0 km/h
29.02.2016 17:00 2,6 C 83 % 1014,3 hPa 0,0 l/m 0,0 km/h NO 0,0 C 2,6 C 0,0 km/h
29.02.2016 18:00 2,6 C 83 % 1015,6 hPa 0,0 l/m 0,0 km/h N-NO 0,0 C 2,6 C 0,0 km/h
29.02.2016 19:00 2,3 C 83 % 1016,4 hPa 0,0 l/m 0,0 km/h N-NO -0,3 C 2,3 C 0,0 km/h
29.02.2016 20:00 2,6 C 82 % 1016,9 hPa 0,0 l/m 0,0 km/h NO -0,2 C 2,6 C 0,0 km/h
29.02.2016 21:00 2,7 C 78 % 1017,5 hPa 0,0 l/m 0,0 km/h N -0,7 C 2,7 C 0,0 km/h
29.02.2016 22:00 2,6 C 77 % 1017,9 hPa 0,0 l/m 0,0 km/h N-NO -1,0 C 2,6 C 0,0 km/h
29.02.2016 23:00 2,4 C 75 % 1018,3 hPa 0,0 l/m 0,0 km/h N-NO -1,6 C 2,4 C 0,0 km/h
01.03.2016 00:00 2,1 C 77 % 1018,3 hPa 0,0 l/m 0,0 km/h N-NO -1,5 C 2,1 C 0,0 km/h
01.03.2016 01:00 1,8 C 78 % 1018,7 hPa 0,0 l/m 0,0 km/h NW -1,6 C 1,8 C 0,0 km/h
01.03.2016 02:00 1,5 C 80 % 1019,0 hPa 0,0 l/m 0,0 km/h NW -1,6 C 1,5 C 0,0 km/h
01.03.2016 03:00 1,2 C 82 % 1019,1 hPa 0,0 l/m 0,0 km/h NW -1,5 C 1,2 C 0,0 km/h
01.03.2016 04:00 0,9 C 84 % 1019,5 hPa 0,0 l/m 0,0 km/h NW -1,5 C 0,9 C 0,0 km/h
01.03.2016 05:00 1,0 C 84 % 1019,8 hPa 0,0 l/m 0,0 km/h NW -1,4 C 1,0 C 0,0 km/h
01.03.2016 06:00 0,9 C 84 % 1019,7 hPa 0,0 l/m 0,0 km/h NW -1,5 C 0,9 C 0,0 km/h
01.03.2016 07:00 -0,1 C 85 % 1020,6 hPa 0,0 l/m 0,0 km/h NW -2,3 C -0,1 C 0,0 km/h
01.03.2016 08:00 1,4 C 85 % 1020,6 hPa 0,0 l/m 0,0 km/h NW -0,8 C 1,4 C 0,0 km/h
01.03.2016 09:00 4,4 C 82 % 1020,2 hPa 0,0 l/m 0,0 km/h S-SW 1,6 C 4,4 C 0,0 km/h
01.03.2016 10:00 5,6 C 77 % 1020,4 hPa 0,0 l/m 21,4 km/h W 1,9 C -2,9 C 11,9 km/h
01.03.2016 11:00 8,7 C 65 % 1020,0 hPa 0,0 l/m 12,3 km/h W 2,5 C 4,9 C 6,8 km/h
01.03.2016 12:00 9,2 C 59 % 1019,2 hPa 0,0 l/m 20,1 km/h W 1,6 C 2,2 C 11,2 km/h
01.03.2016 13:00 9,3 C 57 % 1018,3 hPa 0,0 l/m 29,2 km/h W-NW 1,2 C -0,2 C 16,2 km/h
01.03.2016 14:00 9,9 C 55 % 1017,5 hPa 0,0 l/m 25,9 km/h W 1,3 C 1,5 C 14,4 km/h
01.03.2016 15:00 9,9 C 54 % 1017,0 hPa 0,0 l/m 18,8 km/h W-SW 1,0 C 3,6 C 10,4 km/h
01.03.2016 16:00 6,7 C 61 % 1017,0 hPa 0,0 l/m 18,1 km/h W -0,3 C -0,2 C 10,1 km/h
01.03.2016 17:00 6,1 C 63 % 1016,6 hPa 0,0 l/m 0,0 km/h W-SW -0,4 C 6,1 C 0,0 km/h
01.03.2016 18:00 5,8 C 63 % 1016,6 hPa 0,0 l/m 16,2 km/h SW -0,7 C -0,5 C 9,0 km/h
01.03.2016 19:00 3,2 C 73 % 1017,3 hPa 0,0 l/m 29,8 km/h S-SW -1,2 C -8,9 C 16,6 km/h
01.03.2016 20:00 1,8 C 84 % 1016,7 hPa 0,0 l/m 10,4 km/h S-SW -0,6 C -1,8 C 5,8 km/h
01.03.2016 21:00 2,4 C 85 % 1016,1 hPa 0,0 l/m 1,9 km/h W 0,1 C 2,4 C 1,1 km/h
01.03.2016 22:00 2,4 C 86 % 1015,5 hPa 0,4 l/m 0,0 km/h S-SO 0,3 C 2,4 C 0,0 km/h
01.03.2016 23:00 3,1 C 86 % 1014,1 hPa 0,0 l/m 0,0 km/h SW 1,0 C 3,1 C 0,0 km/h
02.03.2016 00:00 5,1 C 83 % 1012,8 hPa 0,0 l/m 20,7 km/h S-SW 2,5 C -3,3 C 11,5 km/h
02.03.2016 01:00 5,8 C 82 % 1012,0 hPa 0,0 l/m 9,1 km/h W-NW 3,0 C 3,6 C 5,0 km/h
02.03.2016 02:00 5,9 C 84 % 1011,1 hPa 0,0 l/m 10,4 km/h W 3,4 C 2,8 C 5,8 km/h
02.03.2016 03:00 6,2 C 84 % 1010,3 hPa 0,0 l/m 20,1 km/h SW 3,7 C -1,7 C 11,2 km/h
02.03.2016 04:00 6,5 C 84 % 1009,6 hPa 0,0 l/m 20,7 km/h W-SW 4,0 C -1,5 C 11,5 km/h
02.03.2016 05:00 6,9 C 83 % 1009,0 hPa 0,0 l/m 16,2 km/h W 4,2 C 0,8 C 9,0 km/h
02.03.2016 06:00 7,2 C 83 % 1007,7 hPa 0,0 l/m 21,4 km/h W-SW 4,5 C -0,8 C 11,9 km/h
02.03.2016 07:00 7,3 C 82 % 1006,6 hPa 0,0 l/m 14,3 km/h W-SW 4,4 C 2,2 C 7,9 km/h
02.03.2016 08:00 7,8 C 82 % 1006,0 hPa 0,0 l/m 16,8 km/h W-NW 4,9 C 1,7 C 9,4 km/h
02.03.2016 09:00 8,0 C 81 % 1005,2 hPa 0,0 l/m 7,1 km/h SW 4,9 C 7,4 C 4,0 km/h
02.03.2016 10:00 7,4 C 87 % 1003,8 hPa 0,4 l/m 24,6 km/h NW 5,4 C -1,6 C 13,7 km/h
02.03.2016 11:00 10,4 C 80 % 1002,0 hPa 0,0 l/m 21,4 km/h W-SW 7,1 C 3,4 C 11,9 km/h
02.03.2016 12:00 8,4 C 86 % 1001,0 hPa 0,0 l/m 22,0 km/h W-SW 6,2 C 0,6 C 12,2 km/h
02.03.2016 13:00 7,9 C 87 % 999,5 hPa 0,8 l/m 16,2 km/h NW 5,9 C 2,1 C 9,0 km/h
02.03.2016 14:00 6,1 C 87 % 1000,9 hPa 1,7 l/m 2,6 km/h NO 4,1 C 6,1 C 1,4 km/h
02.03.2016 15:00 3,6 C 88 % 1002,1 hPa 2,9 l/m 5,2 km/h S 1,8 C 3,6 C 2,9 km/h
02.03.2016 16:00 2,8 C 88 % 1002,7 hPa 1,7 l/m 0,0 km/h S 1,0 C 2,8 C 0,0 km/h
02.03.2016 17:00 3,3 C 88 % 1002,3 hPa 0,4 l/m 0,0 km/h W 1,5 C 3,3 C 0,0 km/h
02.03.2016 18:00 3,3 C 88 % 1003,9 hPa 0,0 l/m 6,5 km/h S-SO 1,5 C 3,2 C 3,6 km/h
02.03.2016 19:00 1,8 C 87 % 1003,4 hPa 0,0 l/m 0,0 km/h W-SW -0,1 C 1,8 C 0,0 km/h
02.03.2016 20:00 1,4 C 88 % 1003,0 hPa 0,0 l/m 0,0 km/h S-SW -0,4 C 1,4 C 0,0 km/h
02.03.2016 21:00 2,9 C 87 % 1002,2 hPa 0,0 l/m 4,5 km/h W-NW 1,0 C 2,9 C 2,5 km/h
02.03.2016 22:00 3,4 C 85 % 1002,3 hPa 0,0 l/m 26,6 km/h S-SO 1,1 C -7,6 C 14,8 km/h
02.03.2016 23:00 0,7 C 88 % 1003,1 hPa 0,8 l/m 0,0 km/h SW -1,1 C 0,7 C 0,0 km/h
03.03.2016 00:00 1,6 C 88 % 1002,7 hPa 0,4 l/m 24,0 km/h SW -0,2 C -9,2 C 13,3 km/h
03.03.2016 01:00 2,1 C 88 % 1003,0 hPa 0,4 l/m 3,2 km/h W 0,3 C 2,1 C 1,8 km/h
03.03.2016 02:00 2,6 C 87 % 1003,2 hPa 0,0 l/m 17,5 km/h W-SW 0,7 C -5,1 C 9,7 km/h
03.03.2016 03:00 2,1 C 87 % 1002,7 hPa 0,0 l/m 14,9 km/h W 0,2 C -4,4 C 8,3 km/h
03.03.2016 04:00 2,7 C 86 % 1002,3 hPa 0,0 l/m 3,2 km/h SW 0,6 C 2,7 C 1,8 km/h
03.03.2016 05:00 1,9 C 85 % 1002,0 hPa 0,0 l/m 8,4 km/h S-SW -0,3 C -0,0 C 4,7 km/h
03.03.2016 06:00 2,1 C 84 % 1001,5 hPa 0,0 l/m 7,8 km/h SW -0,3 C 0,7 C 4,3 km/h
03.03.2016 07:00 2,9 C 82 % 1000,8 hPa 0,0 l/m 1,9 km/h S 0,1 C 2,9 C 1,1 km/h
03.03.2016 08:00 4,2 C 78 % 1000,6 hPa 0,0 l/m 24,0 km/h W-SW 0,7 C -5,7 C 13,3 km/h
03.03.2016 09:00 5,4 C 75 % 1000,2 hPa 0,0 l/m 17,5 km/h W-NW 1,3 C -1,6 C 9,7 km/h
03.03.2016 10:00 3,1 C 84 % 1000,0 hPa 0,0 l/m 14,3 km/h SW 0,7 C -2,8 C 7,9 km/h
03.03.2016 11:00 4,1 C 86 % 999,7 hPa 0,8 l/m 25,3 km/h W-NW 2,0 C -6,3 C 14,0 km/h
03.03.2016 12:00 5,4 C 86 % 999,8 hPa 0,0 l/m 22,0 km/h W 3,3 C -3,4 C 12,2 km/h
03.03.2016 13:00 5,8 C 81 % 999,0 hPa 0,0 l/m 18,8 km/h W 2,8 C -1,7 C 10,4 km/h
03.03.2016 14:00 4,3 C 87 % 999,2 hPa 0,0 l/m 20,1 km/h NW 2,3 C -4,1 C 11,2 km/h
03.03.2016 15:00 4,8 C 87 % 1000,4 hPa 0,0 l/m 0,0 km/h N 2,8 C 4,8 C 0,0 km/h
03.03.2016 16:00 5,6 C 85 % 1001,1 hPa 0,0 l/m 0,0 km/h NW 3,3 C 5,6 C 0,0 km/h
03.03.2016 17:00 4,4 C 83 % 1002,4 hPa 0,0 l/m 14,9 km/h W 1,8 C -1,6 C 8,3 km/h
03.03.2016 18:00 2,6 C 87 % 1003,8 hPa 0,8 l/m 0,0 km/h S-SO 0,7 C 2,6 C 0,0 km/h
03.03.2016 19:00 2,4 C 88 % 1004,6 hPa 0,0 l/m 0,0 km/h S-SW 0,6 C 2,4 C 0,0 km/h
03.03.2016 20:00 2,7 C 88 % 1005,1 hPa 0,0 l/m 5,8 km/h W-NW 0,9 C 2,7 C 3,2 km/h
03.03.2016 21:00 2,5 C 88 % 1006,0 hPa 0,4 l/m 0,0 km/h W-NW 0,7 C 2,5 C 0,0 km/h
03.03.2016 22:00 2,3 C 88 % 1006,7 hPa 0,8 l/m 0,0 km/h S 0,5 C 2,3 C 0,0 km/h
03.03.2016 23:00 1,3 C 88 % 1006,8 hPa 0,0 l/m 0,0 km/h S -0,5 C 1,3 C 0,0 km/h
04.03.2016 00:00 0,6 C 88 % 1007,0 hPa 0,0 l/m 0,0 km/h S -1,2 C 0,6 C 0,0 km/h
04.03.2016 01:00 0,4 C 88 % 1007,1 hPa 0,0 l/m 0,0 km/h S -1,3 C 0,4 C 0,0 km/h
04.03.2016 02:00 -0,2 C 88 % 1006,6 hPa 0,0 l/m 0,0 km/h SO -1,9 C -0,2 C 0,0 km/h
04.03.2016 03:00 -0,2 C 88 % 1006,2 hPa 0,0 l/m 0,0 km/h SO -1,9 C -0,2 C 0,0 km/h
04.03.2016 04:00 -0,7 C 88 % 1005,1 hPa 0,0 l/m 0,0 km/h SO -2,4 C -0,7 C 0,0 km/h
04.03.2016 05:00 -0,6 C 87 % 1003,6 hPa 0,0 l/m 0,0 km/h SO -2,5 C -0,6 C 0,0 km/h
04.03.2016 06:00 -0,5 C 87 % 1002,2 hPa 0,0 l/m 20,7 km/h SO -2,4 C -10,6 C 11,5 km/h
04.03.2016 07:00 0,5 C 88 % 1000,9 hPa 0,0 l/m 9,1 km/h SO -1,3 C -2,1 C 5,0 km/h
04.03.2016 08:00 1,4 C 88 % 999,7 hPa 0,0 l/m 4,5 km/h S-SO -0,4 C 1,4 C 2,5 km/h
04.03.2016 09:00 3,4 C 85 % 998,8 hPa 0,0 l/m 0,0 km/h SO 1,1 C 3,4 C 0,0 km/h
04.03.2016 10:00 6,3 C 74 % 997,8 hPa 0,0 l/m 11,0 km/h S-SO 2,0 C 2,9 C 6,1 km/h
04.03.2016 11:00 7,8 C 70 % 996,6 hPa 0,0 l/m 1,9 km/h SO 2,7 C 7,8 C 1,1 km/h
04.03.2016 12:00 9,2 C 66 % 995,6 hPa 0,0 l/m 0,0 km/h W-NW 3,2 C 9,2 C 0,0 km/h
04.03.2016 13:00 7,9 C 71 % 995,3 hPa 0,0 l/m 0,0 km/h O-NO 3,0 C 7,9 C 0,0 km/h
04.03.2016 14:00 6,4 C 80 % 994,8 hPa 0,4 l/m 0,0 km/h S-SO 3,2 C 6,4 C 0,0 km/h
04.03.2016 15:00 7,8 C 81 % 994,4 hPa 0,0 l/m 0,0 km/h S-SO 4,7 C 7,8 C 0,0 km/h
04.03.2016 16:00 7,6 C 82 % 993,3 hPa 0,0 l/m 15,6 km/h S-SO 4,7 C 2,0 C 8,6 km/h
04.03.2016 17:00 8,4 C 78 % 993,0 hPa 0,0 l/m 7,1 km/h S 4,8 C 7,9 C 4,0 km/h
04.03.2016 18:00 8,1 C 78 % 993,3 hPa 0,0 l/m 6,5 km/h S-SO 4,5 C 8,0 C 3,6 km/h
04.03.2016 19:00 6,9 C 84 % 993,4 hPa 0,4 l/m 7,1 km/h S-SO 4,4 C 6,3 C 4,0 km/h
04.03.2016 20:00 6,8 C 85 % 993,2 hPa 0,4 l/m 0,0 km/h S-SO 4,5 C 6,8 C 0,0 km/h
04.03.2016 21:00 6,4 C 86 % 993,2 hPa 0,0 l/m 0,0 km/h S-SO 4,2 C 6,4 C 0,0 km/h
04.03.2016 22:00 6,3 C 87 % 993,2 hPa 0,4 l/m 8,4 km/h SO 4,3 C 4,7 C 4,7 km/h
04.03.2016 23:00 5,9 C 87 % 992,7 hPa 0,0 l/m 3,9 km/h S 3,9 C 5,9 C 2,2 km/h
05.03.2016 00:00 5,8 C 87 % 992,5 hPa 0,0 l/m 0,0 km/h S 3,8 C 5,8 C 0,0 km/h
05.03.2016 01:00 6,1 C 87 % 992,3 hPa 0,4 l/m 0,0 km/h S 4,1 C 6,1 C 0,0 km/h
05.03.2016 02:00 5,6 C 88 % 992,3 hPa 0,8 l/m 1,9 km/h W-SW 3,8 C 5,6 C 1,1 km/h
05.03.2016 03:00 5,3 C 88 % 992,8 hPa 0,8 l/m 0,0 km/h S 3,5 C 5,3 C 0,0 km/h
05.03.2016 04:00 5,1 C 88 % 992,8 hPa 0,8 l/m 0,6 km/h S 3,3 C 5,1 C 0,4 km/h
05.03.2016 05:00 5,5 C 88 % 992,8 hPa 0,0 l/m 0,0 km/h W 3,7 C 5,5 C 0,0 km/h
05.03.2016 06:00 5,3 C 88 % 993,3 hPa 0,0 l/m 0,0 km/h S-SW 3,5 C 5,3 C 0,0 km/h
05.03.2016 07:00 5,2 C 88 % 993,2 hPa 0,4 l/m 3,2 km/h W-SW 3,4 C 5,2 C 1,8 km/h
05.03.2016 08:00 5,8 C 86 % 993,2 hPa 0,0 l/m 4,5 km/h W-SW 3,6 C 5,8 C 2,5 km/h
05.03.2016 09:00 5,9 C 83 % 993,7 hPa 0,0 l/m 30,5 km/h W-SW 3,2 C -5,2 C 16,9 km/h
05.03.2016 10:00 6,4 C 80 % 994,0 hPa 0,0 l/m 16,8 km/h SW 3,2 C -0,1 C 9,4 km/h
05.03.2016 11:00 7,2 C 75 % 993,7 hPa 0,0 l/m 20,7 km/h W-SW 3,1 C -0,6 C 11,5 km/h
05.03.2016 12:00 7,2 C 74 % 993,9 hPa 0,0 l/m 16,8 km/h W 2,9 C 0,9 C 9,4 km/h
05.03.2016 13:00 7,8 C 72 % 993,4 hPa 0,0 l/m 7,8 km/h W 3,1 C 6,7 C 4,3 km/h
05.03.2016 14:00 7,3 C 71 % 993,7 hPa 0,0 l/m 1,9 km/h W-NW 2,4 C 7,3 C 1,1 km/h
05.03.2016 15:00 7,8 C 70 % 993,6 hPa 0,0 l/m 0,0 km/h W-NW 2,7 C 7,8 C 0,0 km/h
05.03.2016 16:00 7,4 C 70 % 994,2 hPa 0,0 l/m 5,2 km/h W 2,3 C 7,4 C 2,9 km/h
05.03.2016 17:00 10,3 C 61 % 994,0 hPa 0,0 l/m 0,0 km/h SO 3,1 C 10,3 C 0,0 km/h
05.03.2016 18:00 4,6 C 76 % 993,6 hPa 0,0 l/m 0,0 km/h SO 0,7 C 4,6 C 0,0 km/h
05.03.2016 19:00 3,4 C 82 % 994,0 hPa 0,0 l/m 0,0 km/h S-SO 0,6 C 3,4 C 0,0 km/h
05.03.2016 20:00 2,3 C 86 % 995,6 hPa 0,4 l/m 0,0 km/h N-NO 0,2 C 2,3 C 0,0 km/h
05.03.2016 21:00 2,4 C 87 % 995,9 hPa 0,0 l/m 0,0 km/h SW 0,5 C 2,4 C 0,0 km/h
05.03.2016 22:00 3,6 C 87 % 996,3 hPa 0,0 l/m 8,4 km/h S-SW 1,6 C 1,8 C 4,7 km/h
05.03.2016 23:00 3,9 C 84 % 996,3 hPa 0,0 l/m 2,6 km/h S-SW 1,4 C 3,9 C 1,4 km/h
06.03.2016 00:00 4,0 C 83 % 996,6 hPa 0,0 l/m 12,3 km/h S-SW 1,4 C -0,6 C 6,8 km/h
06.03.2016 01:00 2,3 C 87 % 997,7 hPa 0,4 l/m 3,9 km/h W-NW 0,4 C 2,3 C 2,2 km/h
06.03.2016 02:00 0,7 C 88 % 998,9 hPa 1,7 l/m 0,0 km/h W -1,1 C 0,7 C 0,0 km/h
06.03.2016 03:00 0,5 C 88 % 999,2 hPa 0,0 l/m 9,7 km/h W -1,3 C -2,6 C 5,4 km/h
06.03.2016 04:00 1,3 C 87 % 999,8 hPa 0,4 l/m 5,2 km/h W -0,6 C 1,3 C 2,9 km/h
06.03.2016 05:00 1,5 C 87 % 1000,0 hPa 1,2 l/m 8,4 km/h S-SO -0,4 C -0,4 C 4,7 km/h
06.03.2016 06:00 1,8 C 88 % 1000,5 hPa 0,4 l/m 7,8 km/h SW 0,0 C 0,4 C 4,3 km/h
06.03.2016 07:00 1,9 C 88 % 1000,7 hPa 0,4 l/m 1,9 km/h W 0,1 C 1,9 C 1,1 km/h
06.03.2016 08:00 2,8 C 87 % 1001,0 hPa 0,4 l/m 15,6 km/h W 0,9 C -3,9 C 8,6 km/h
06.03.2016 09:00 3,1 C 87 % 1001,3 hPa 0,0 l/m 4,5 km/h S-SW 1,2 C 3,1 C 2,5 km/h
06.03.2016 10:00 3,9 C 83 % 1001,7 hPa 0,0 l/m 20,7 km/h W-SW 1,3 C -4,9 C 11,5 km/h
06.03.2016 11:00 5,0 C 81 % 1001,8 hPa 0,0 l/m 23,3 km/h SW 2,0 C -4,4 C 13,0 km/h
06.03.2016 12:00 6,7 C 76 % 1001,4 hPa 0,0 l/m 24,0 km/h W-SW 2,8 C -2,3 C 13,3 km/h
06.03.2016 13:00 6,4 C 74 % 1001,0 hPa 0,0 l/m 17,5 km/h W-SW 2,1 C -0,4 C 9,7 km/h
06.03.2016 14:00 7,0 C 71 % 1000,8 hPa 0,0 l/m 29,2 km/h W-SW 2,1 C -3,4 C 16,2 km/h
06.03.2016 15:00 6,7 C 71 % 1000,7 hPa 0,0 l/m 20,7 km/h SW 1,8 C -1,2 C 11,5 km/h
06.03.2016 16:00 4,6 C 78 % 1001,4 hPa 0,0 l/m 17,5 km/h W-SW 1,1 C -2,6 C 9,7 km/h
06.03.2016 17:00 4,9 C 78 % 1001,6 hPa 0,0 l/m 3,9 km/h SW 1,4 C 4,9 C 2,2 km/h
06.03.2016 18:00 3,8 C 80 % 1002,2 hPa 0,0 l/m 14,9 km/h W 0,7 C -2,3 C 8,3 km/h
06.03.2016 19:00 3,5 C 81 % 1002,7 hPa 0,0 l/m 17,5 km/h W 0,6 C -4,0 C 9,7 km/h
06.03.2016 20:00 3,3 C 82 % 1002,9 hPa 0,0 l/m 7,1 km/h W 0,5 C 2,6 C 4,0 km/h
06.03.2016 21:00 2,1 C 85 % 1002,9 hPa 0,0 l/m 0,0 km/h W -0,2 C 2,1 C 0,0 km/h
06.03.2016 22:00 2,1 C 85 % 1003,1 hPa 0,0 l/m 0,0 km/h W-SW -0,2 C 2,1 C 0,0 km/h
06.03.2016 23:00 2,4 C 84 % 1002,9 hPa 0,0 l/m 1,3 km/h W-NW -0,0 C 2,4 C 0,7 km/h
Min-Datum _ 04.03.16 01.03.16 05.03.16 - 29.02.16 - 29.02.16 04.03.16 29.02.16
_ Min-Zeit 04:42 15:42 01:42 - 00:42 - 00:42 06:42 00:42
Minimum _ -0,7 C 54 % 992,3 hPa - 0,0 km/h - -3,9 C -10,6 C 0,0 km/h
Max-Datum _ 02.03.16 02.03.16 01.03.16 02.03.16 05.03.16 - 02.03.16 05.03.16 05.03.16
_ Max-Zeit 11:42 15:42 07:42 15:42 09:42 - 11:42 17:42 09:42
Maximum _ 10,4 C 88 % 1020,6 hPa 2,9 l/m 30,5 km/h
W-SW
- 7,1 C 10,3 C 16,9 km/h
W-SW
Durchschnitt _ 4,1 C 81 % 1004,3 hPa #23,2 l/m 7,4 km/h W 1,1 C 1,6 C 4,1 km/h
www.sexauwetter.de